Time;durP1;ratioP1;P1;durP2;ratioP2;P2;SDS_P1;SDS_P2;PMS_P1;PMS_P2;Temp;Humidity;BMP_temperature;BMP_pressure;BME280_temperature;BME280_humidity;BME280_pressure;Samples;Min_cycle;Max_cycle;Signal;HPM_P1;HPM_P2
2023/05/14 00:00:51;;;;;;;7.65;3.17;;;12.60;99.90;;;;;;5096700;28;20046;-47
2023/05/14 00:03:16;;;;;;;5.10;2.70;;;12.70;99.90;;;;;;5096384;28;20036;-47
2023/05/14 00:05:42;;;;;;;5.40;2.90;;;12.60;99.90;;;;;;5096413;28;20040;-47
2023/05/14 00:08:08;;;;;;;6.85;3.58;;;12.60;99.90;;;;;;5096477;28;20055;-47
2023/05/14 00:10:33;;;;;;;5.93;3.13;;;12.60;99.90;;;;;;5096528;28;20048;-47
2023/05/14 00:12:59;;;;;;;7.43;3.00;;;12.60;99.90;;;;;;5096448;28;20583;-47
2023/05/14 00:15:25;;;;;;;7.13;3.38;;;12.70;99.90;;;;;;5095360;28;20048;-49
2023/05/14 00:17:51;;;;;;;5.70;2.97;;;12.70;99.90;;;;;;5096521;28;20079;-47
2023/05/14 00:20:16;;;;;;;6.47;2.90;;;12.70;99.90;;;;;;5096150;28;20051;-47
2023/05/14 00:22:42;;;;;;;6.33;2.97;;;12.70;99.90;;;;;;5096333;28;20040;-47
2023/05/14 00:25:08;;;;;;;7.40;3.30;;;12.60;99.90;;;;;;5096232;28;20407;-47
2023/05/14 00:27:36;;;;;;;5.57;3.10;;;12.60;99.90;;;;;;5095260;28;20043;-47
2023/05/14 00:30:03;;;;;;;6.93;3.30;;;12.60;99.90;;;;;;5095900;28;20051;-47
2023/05/14 00:32:29;;;;;;;4.93;2.80;;;12.50;99.90;;;;;;5095704;28;20156;-47
2023/05/14 00:34:55;;;;;;;6.10;2.93;;;12.40;99.90;;;;;;5096072;28;20535;-46
2023/05/14 00:37:20;;;;;;;5.10;2.80;;;12.40;99.90;;;;;;5096022;28;20048;-47
2023/05/14 00:39:46;;;;;;;5.80;3.13;;;12.40;99.90;;;;;;5096268;28;20083;-47
2023/05/14 00:42:12;;;;;;;5.90;3.13;;;12.30;99.90;;;;;;5095946;28;20281;-46
2023/05/14 00:44:37;;;;;;;6.77;2.77;;;12.40;99.90;;;;;;5095791;28;20487;-47
2023/05/14 00:47:04;;;;;;;5.93;2.67;;;12.40;99.90;;;;;;5095509;28;20055;-47
2023/05/14 00:49:30;;;;;;;5.25;2.70;;;12.40;99.90;;;;;;5095795;28;20044;-47
2023/05/14 00:51:57;;;;;;;4.80;2.73;;;12.30;99.90;;;;;;5095612;28;20131;-47
2023/05/14 00:54:23;;;;;;;6.60;2.50;;;12.30;99.90;;;;;;5095535;28;20822;-47
2023/05/14 00:56:49;;;;;;;5.00;2.50;;;12.20;99.90;;;;;;5095657;28;20080;-47
2023/05/14 00:59:15;;;;;;;4.65;2.42;;;12.20;99.90;;;;;;5095522;28;20044;-47
2023/05/14 01:01:41;;;;;;;6.83;2.90;;;12.20;99.90;;;;;;5094338;28;20055;-47
2023/05/14 01:04:09;;;;;;;5.60;2.80;;;12.10;99.90;;;;;;5095530;28;20314;-46
2023/05/14 01:06:59;;;;;;;4.97;2.67;;;12.20;99.90;;;;;;5094395;28;20281;-46
2023/05/14 01:09:49;;;;;;;4.63;2.40;;;12.20;99.90;;;;;;5095385;28;20044;-46
2023/05/14 01:12:32;;;;;;;6.00;2.40;;;12.20;99.90;;;;;;5095322;28;20074;-47
2023/05/14 01:15:08;;;;;;;6.28;2.72;;;12.20;99.90;;;;;;5095386;28;20562;-47
2023/05/14 01:17:40;;;;;;;6.70;2.55;;;12.20;99.90;;;;;;5095153;28;20040;-47
2023/05/14 01:20:06;;;;;;;6.35;2.80;;;12.20;99.90;;;;;;5095511;28;20088;-47
2023/05/14 01:22:32;;;;;;;5.43;2.47;;;12.20;99.90;;;;;;5093856;28;20043;-47
2023/05/14 01:24:58;;;;;;;5.10;2.43;;;12.20;99.90;;;;;;5095298;28;20586;-47
2023/05/14 01:27:41;;;;;;;6.10;3.13;;;12.20;99.90;;;;;;5095077;28;20075;-47
2023/05/14 01:30:10;;;;;;;4.88;2.17;;;12.20;99.90;;;;;;5094858;28;20048;-47
2023/05/14 01:32:37;;;;;;;5.43;2.53;;;12.20;99.90;;;;;;5094786;28;20063;-46
2023/05/14 01:35:06;;;;;;;5.53;2.55;;;12.20;99.90;;;;;;5094614;28;20048;-47
2023/05/14 01:37:32;;;;;;;5.18;2.42;;;12.20;99.90;;;;;;5093888;28;20085;-47
2023/05/14 01:39:58;;;;;;;4.07;2.20;;;12.30;99.90;;;;;;5094798;28;20044;-47
2023/05/14 01:42:25;;;;;;;6.20;2.70;;;12.30;99.90;;;;;;5094752;28;20156;-47
2023/05/14 01:44:50;;;;;;;4.38;2.35;;;12.30;99.90;;;;;;5094543;28;20048;-46
2023/05/14 01:47:16;;;;;;;6.47;3.00;;;12.20;99.90;;;;;;5094442;28;20131;-47
2023/05/14 01:49:42;;;;;;;5.63;2.10;;;12.10;99.90;;;;;;5094308;28;20411;-47
2023/05/14 01:52:07;;;;;;;5.40;2.73;;;12.00;99.90;;;;;;5093815;28;20407;-47
2023/05/14 01:54:33;;;;;;;5.05;2.78;;;11.90;99.90;;;;;;5094052;28;20040;-47
2023/05/14 01:56:59;;;;;;;5.83;2.40;;;11.90;99.90;;;;;;5094595;28;20055;-47
2023/05/14 01:59:25;;;;;;;5.23;2.30;;;11.80;99.90;;;;;;5093409;28;20048;-46
2023/05/14 02:01:50;;;;;;;5.70;2.47;;;11.70;99.90;;;;;;5094322;28;20365;-47
2023/05/14 02:04:16;;;;;;;5.33;2.33;;;11.60;99.90;;;;;;5094302;28;20075;-47
2023/05/14 02:06:42;;;;;;;4.60;2.30;;;11.50;99.90;;;;;;5094354;28;20097;-46
2023/05/14 02:09:07;;;;;;;6.53;2.80;;;11.50;99.90;;;;;;5094277;28;20285;-47
2023/05/14 02:11:33;;;;;;;6.00;2.63;;;11.50;99.90;;;;;;5092975;28;20085;-47
2023/05/14 02:13:58;;;;;;;4.83;2.43;;;11.50;99.90;;;;;;5094134;28;20043;-47
2023/05/14 02:16:24;;;;;;;4.70;2.63;;;11.50;99.90;;;;;;5094108;28;20105;-47
2023/05/14 02:18:50;;;;;;;5.70;2.47;;;11.40;99.90;;;;;;5093935;28;20181;-47
2023/05/14 02:21:15;;;;;;;6.83;2.90;;;11.50;99.90;;;;;;5094380;28;20036;-50
2023/05/14 02:23:41;;;;;;;7.03;3.10;;;11.50;99.90;;;;;;5094061;28;20403;-48
2023/05/14 02:26:09;;;;;;;6.63;3.33;;;11.50;99.90;;;;;;5093003;28;20068;-47
2023/05/14 02:28:34;;;;;;;9.20;3.42;;;11.50;99.90;;;;;;5093780;28;20079;-47
2023/05/14 02:31:00;;;;;;;6.83;3.33;;;11.50;99.90;;;;;;5093700;28;20080;-50
2023/05/14 02:33:27;;;;;;;8.67;3.70;;;11.50;99.90;;;;;;5093701;28;20055;-47
2023/05/14 02:35:52;;;;;;;7.53;3.22;;;11.60;99.90;;;;;;5093873;28;20081;-47
2023/05/14 02:38:19;;;;;;;8.80;3.67;;;11.60;99.90;;;;;;5093387;28;20048;-51
2023/05/14 02:40:45;;;;;;;7.93;3.88;;;11.70;99.90;;;;;;5092830;28;20055;-48
2023/05/14 02:43:10;;;;;;;7.77;3.70;;;11.70;99.90;;;;;;5093944;28;20048;-50
2023/05/14 02:45:36;;;;;;;6.53;3.23;;;11.70;99.90;;;;;;5093778;28;20446;-51
2023/05/14 02:48:02;;;;;;;9.07;3.83;;;11.70;99.90;;;;;;5092500;28;20047;-50
2023/05/14 02:50:27;;;;;;;7.03;3.37;;;11.70;99.90;;;;;;5093639;28;20047;-47
2023/05/14 02:52:53;;;;;;;6.37;3.57;;;11.70;99.90;;;;;;5093670;28;20040;-48
2023/05/14 02:55:19;;;;;;;8.03;3.40;;;11.70;99.90;;;;;;5093541;28;20044;-47
2023/05/14 02:57:45;;;;;;;8.50;4.00;;;11.70;99.90;;;;;;5093738;28;20044;-51
2023/05/14 03:00:11;;;;;;;7.85;3.25;;;11.70;99.90;;;;;;5093762;28;20391;-47
2023/05/14 03:02:37;;;;;;;6.97;3.38;;;11.70;99.90;;;;;;5093412;28;20482;-46
2023/05/14 03:05:03;;;;;;;7.45;3.35;;;11.70;99.90;;;;;;5093554;28;20117;-46
2023/05/14 03:07:29;;;;;;;7.13;3.35;;;11.70;99.90;;;;;;5093941;28;20479;-46
2023/05/14 03:09:55;;;;;;;8.07;3.50;;;11.70;99.90;;;;;;5093433;28;20040;-46
2023/05/14 03:12:21;;;;;;;8.63;3.17;;;11.70;99.90;;;;;;5093580;28;20403;-46
2023/05/14 03:14:46;;;;;;;8.97;3.63;;;11.70;99.90;;;;;;5093320;28;20044;-47
2023/05/14 03:17:12;;;;;;;8.80;3.67;;;11.70;99.90;;;;;;5092530;28;20048;-47
2023/05/14 03:19:37;;;;;;;9.10;4.53;;;11.80;99.90;;;;;;5092346;28;20052;-47
2023/05/14 03:22:03;;;;;;;9.30;3.97;;;11.80;99.90;;;;;;5093458;28;20040;-46
2023/05/14 03:24:30;;;;;;;10.00;4.15;;;11.80;99.90;;;;;;5092482;28;20052;-47
2023/05/14 03:26:56;;;;;;;7.68;3.92;;;11.80;99.90;;;;;;5093295;28;20044;-47
2023/05/14 03:29:21;;;;;;;8.20;3.90;;;11.90;99.90;;;;;;5092463;28;20051;-46
2023/05/14 03:31:47;;;;;;;6.10;3.70;;;11.80;99.90;;;;;;5093041;28;20048;-47
2023/05/14 03:34:13;;;;;;;6.07;3.47;;;11.90;99.90;;;;;;5092962;28;20088;-47
2023/05/14 03:36:38;;;;;;;9.00;3.80;;;11.90;99.90;;;;;;5093302;28;20074;-46
2023/05/14 03:39:05;;;;;;;6.43;3.60;;;11.90;99.90;;;;;;5092336;28;20056;-47
2023/05/14 03:41:32;;;;;;;8.65;3.20;;;11.90;99.90;;;;;;5093172;28;20051;-47
2023/05/14 03:43:57;;;;;;;6.25;3.22;;;11.80;99.90;;;;;;5093301;28;20556;-47
2023/05/14 03:46:23;;;;;;;5.50;2.80;;;11.90;99.90;;;;;;5092989;28;20044;-46
2023/05/14 03:48:49;;;;;;;6.50;3.53;;;11.80;99.90;;;;;;5093575;28;20091;-47
2023/05/14 03:51:14;;;;;;;5.80;3.27;;;11.70;99.90;;;;;;5096053;28;20089;-46
2023/05/14 03:53:40;;;;;;;6.37;3.17;;;11.50;99.90;;;;;;5096918;28;20048;-47
2023/05/14 03:56:06;;;;;;;7.95;3.97;;;11.50;99.90;;;;;;5095701;28;20048;-47
2023/05/14 03:58:32;;;;;;;5.87;3.27;;;11.40;99.90;;;;;;5096863;28;20044;-46
2023/05/14 04:00:57;;;;;;;7.63;3.17;;;11.40;99.90;;;;;;5096553;28;20040;-47
2023/05/14 04:03:23;;;;;;;9.17;4.00;;;11.40;99.90;;;;;;5096214;28;20052;-47
2023/05/14 04:05:50;;;;;;;9.70;4.23;;;11.30;99.90;;;;;;5096603;28;20051;-47
2023/05/14 04:08:15;;;;;;;8.23;4.13;;;11.30;99.90;;;;;;5096533;28;20144;-46
2023/05/14 04:10:42;;;;;;;8.97;4.20;;;11.30;99.90;;;;;;5096309;28;20099;-47
2023/05/14 04:13:07;;;;;;;6.18;3.30;;;11.20;99.90;;;;;;5096443;28;20044;-47
2023/05/14 04:15:34;;;;;;;6.83;3.27;;;11.30;99.90;;;;;;5096160;28;20051;-47
2023/05/14 04:18:00;;;;;;;10.00;4.05;;;11.30;99.90;;;;;;5096317;28;20097;-47
2023/05/14 04:20:26;;;;;;;6.20;3.50;;;11.30;99.90;;;;;;5096656;28;20083;-46
2023/05/14 04:22:53;;;;;;;6.43;3.17;;;11.30;99.90;;;;;;5096219;28;20395;-47
2023/05/14 04:25:18;;;;;;;9.15;3.30;;;11.30;99.90;;;;;;5096641;28;20044;-46
2023/05/14 04:27:44;;;;;;;6.15;3.13;;;11.30;99.90;;;;;;5096068;28;20418;-47
2023/05/14 04:30:10;;;;;;;7.15;3.15;;;11.30;99.90;;;;;;5095952;28;20050;-46
2023/05/14 04:32:36;;;;;;;6.82;3.42;;;11.40;99.90;;;;;;5095860;28;20153;-47
2023/05/14 04:35:03;;;;;;;4.80;2.70;;;11.30;99.90;;;;;;5096003;28;20135;-47
2023/05/14 04:37:29;;;;;;;;;;;11.30;99.90;;;;;;5096413;28;20455;-47
2023/05/14 04:39:55;;;;;;;6.55;3.08;;;11.30;99.90;;;;;;5095915;28;19919;-47
2023/05/14 04:42:21;;;;;;;7.40;3.70;;;11.30;99.90;;;;;;5095723;28;20032;-47
2023/05/14 04:44:47;;;;;;;7.83;3.47;;;11.30;99.90;;;;;;5094724;28;20090;-48
2023/05/14 04:47:13;;;;;;;7.00;3.67;;;11.30;99.90;;;;;;5095833;28;20343;-46
2023/05/14 04:49:38;;;;;;;6.87;3.37;;;11.30;99.90;;;;;;5094629;28;20126;-47
2023/05/14 04:52:05;;;;;;;9.17;4.00;;;11.40;99.90;;;;;;5095537;28;20094;-47
2023/05/14 04:54:31;;;;;;;8.20;3.92;;;11.40;99.90;;;;;;5095618;28;20055;-47
2023/05/14 04:57:01;;;;;;;7.97;3.53;;;11.40;99.90;;;;;;5095412;28;20043;-46
2023/05/14 04:59:28;;;;;;;7.50;3.50;;;11.40;99.90;;;;;;5095522;28;20442;-47
2023/05/14 05:01:54;;;;;;;;;;;11.50;99.90;;;;;;5095640;28;20497;-48
2023/05/14 05:04:19;;;;;;;7.50;3.45;;;11.50;99.90;;;;;;5095932;28;19960;-47
2023/05/14 05:06:45;;;;;;;8.60;3.50;;;11.50;99.90;;;;;;5095853;28;20391;-46
2023/05/14 05:09:11;;;;;;;6.73;3.50;;;11.60;99.90;;;;;;5094513;28;20048;-47
2023/05/14 05:11:37;;;;;;;7.80;3.67;;;11.60;99.90;;;;;;5094082;28;20083;-48
2023/05/14 05:14:03;;;;;;;8.95;3.67;;;11.70;99.90;;;;;;5095000;28;20055;-46
2023/05/14 05:16:29;;;;;;;7.87;3.30;;;11.70;99.90;;;;;;5095299;28;20043;-47
2023/05/14 05:18:55;;;;;;;7.22;3.65;;;11.70;99.90;;;;;;5095109;28;20131;-47
2023/05/14 05:21:20;;;;;;;7.93;3.23;;;11.80;99.90;;;;;;5095267;28;20139;-47
2023/05/14 05:23:46;;;;;;;6.40;3.20;;;11.80;99.90;;;;;;5095164;28;20524;-49
2023/05/14 05:26:12;;;;;;;6.50;3.13;;;11.90;99.90;;;;;;5094955;28;20048;-48
2023/05/14 05:28:37;;;;;;;7.33;3.40;;;11.90;99.90;;;;;;5094896;28;20079;-48
2023/05/14 05:31:03;;;;;;;8.33;3.60;;;12.00;99.90;;;;;;5094663;28;20044;-49
2023/05/14 05:33:29;;;;;;;9.87;3.90;;;12.00;99.90;;;;;;5094825;28;20055;-51
2023/05/14 05:35:54;;;;;;;8.77;3.57;;;12.10;99.90;;;;;;5095167;28;20285;-49
2023/05/14 05:38:20;;;;;;;10.50;3.70;;;12.10;99.90;;;;;;5094727;28;20048;-49
2023/05/14 05:40:46;;;;;;;8.33;3.87;;;12.20;99.90;;;;;;5094777;28;20062;-50
2023/05/14 05:43:13;;;;;;;8.43;3.72;;;12.20;99.90;;;;;;5094675;28;20047;-48
2023/05/14 05:45:40;;;;;;;6.80;3.20;;;12.30;99.90;;;;;;5093760;28;20048;-48
2023/05/14 05:48:05;;;;;;;;;;;12.30;99.90;;;;;;5095444;28;20044;-49
2023/05/14 05:50:31;;;;;;;6.95;3.30;;;12.40;99.90;;;;;;5094394;28;19924;-49
2023/05/14 05:53:00;;;;;;;9.00;3.57;;;12.40;99.90;;;;;;5094500;28;20083;-49
2023/05/14 05:55:25;;;;;;;9.43;3.50;;;12.50;99.90;;;;;;5094618;28;20048;-50
2023/05/14 05:57:51;;;;;;;9.07;3.33;;;12.60;99.90;;;;;;5093092;28;20510;-47
2023/05/14 06:00:17;;;;;;;8.57;4.03;;;12.70;99.90;;;;;;5094396;28;20621;-50
2023/05/14 06:02:43;;;;;;;8.80;3.45;;;12.90;99.90;;;;;;5094310;28;20071;-52
2023/05/14 06:05:09;;;;;;;9.20;2.97;;;13.00;99.90;;;;;;5094495;28;20479;-47
2023/05/14 06:07:35;;;;;;;10.98;3.25;;;13.10;99.90;;;;;;5094439;28;20044;-47
2023/05/14 06:10:01;;;;;;;6.77;3.17;;;13.30;99.90;;;;;;5094232;28;20570;-47
2023/05/14 06:12:27;;;;;;;9.45;3.42;;;13.40;99.90;;;;;;5093244;28;20299;-47
2023/05/14 06:14:56;;;;;;;6.10;2.83;;;13.50;99.90;;;;;;5094218;28;20433;-47
2023/05/14 06:17:25;;;;;;;5.60;2.45;;;13.60;99.90;;;;;;5093471;28;20095;-48
2023/05/14 06:19:51;;;;;;;7.43;3.00;;;13.80;99.90;;;;;;5094130;28;20048;-47
2023/05/14 06:22:18;;;;;;;5.57;2.35;;;14.00;99.90;;;;;;5093227;28;20206;-50
2023/05/14 06:24:43;;;;;;;10.45;2.67;;;14.00;99.90;;;;;;5093887;28;20104;-49
2023/05/14 06:27:12;;;;;;;6.20;2.60;;;14.10;99.90;;;;;;5093870;28;20134;-48
2023/05/14 06:29:38;;;;;;;6.03;2.60;;;14.10;99.90;;;;;;5093909;28;20075;-47
2023/05/14 06:32:05;;;;;;;7.75;2.42;;;14.20;99.90;;;;;;5093793;28;20104;-47
2023/05/14 06:34:31;;;;;;;5.90;3.05;;;14.10;99.90;;;;;;5094308;28;20056;-47
2023/05/14 06:36:57;;;;;;;6.35;3.13;;;14.20;99.90;;;;;;5092545;28;20054;-48
2023/05/14 06:39:25;;;;;;;6.57;2.87;;;14.20;99.90;;;;;;5093773;28;20097;-47
2023/05/14 06:41:51;;;;;;;7.13;3.30;;;14.10;99.90;;;;;;5093880;28;20127;-48
2023/05/14 06:44:18;;;;;;;7.43;3.73;;;14.10;99.90;;;;;;5093871;28;20086;-48
2023/05/14 06:46:44;;;;;;;6.65;3.17;;;14.10;99.90;;;;;;5093774;28;20047;-47
2023/05/14 06:49:09;;;;;;;7.82;3.03;;;14.20;99.90;;;;;;5093690;28;20156;-47
2023/05/14 06:51:35;;;;;;;7.28;3.33;;;14.20;99.90;;;;;;5093745;28;20047;-48
2023/05/14 06:54:01;;;;;;;7.93;3.10;;;14.20;99.90;;;;;;5093438;28;20044;-48
2023/05/14 06:56:27;;;;;;;6.73;2.80;;;14.20;99.90;;;;;;5093737;28;20387;-49
2023/05/14 06:58:52;;;;;;;6.75;3.42;;;14.20;99.90;;;;;;5094103;28;20479;-47
2023/05/14 07:01:18;;;;;;;7.47;3.37;;;14.30;99.90;;;;;;5093667;28;20044;-48
2023/05/14 07:03:44;;;;;;;8.73;3.37;;;14.40;99.90;;;;;;5093488;28;20285;-47
2023/05/14 07:06:09;;;;;;;7.05;2.95;;;14.50;99.90;;;;;;5092515;28;20059;-47
2023/05/14 07:08:35;;;;;;;6.55;3.30;;;14.50;99.90;;;;;;5093554;28;20395;-47
2023/05/14 07:11:01;;;;;;;5.70;2.77;;;14.60;99.90;;;;;;5093519;28;20055;-47
2023/05/14 07:13:27;;;;;;;7.40;3.27;;;14.70;99.90;;;;;;5093623;28;20121;-47
2023/05/14 07:15:54;;;;;;;6.80;3.30;;;14.80;99.90;;;;;;5092628;28;20109;-47
2023/05/14 07:18:22;;;;;;;8.13;3.28;;;15.00;99.90;;;;;;5093505;28;20043;-46
2023/05/14 07:20:47;;;;;;;6.55;3.15;;;15.20;99.90;;;;;;5093643;28;20101;-47
2023/05/14 07:23:13;;;;;;;7.07;3.07;;;15.20;99.90;;;;;;5093333;28;20487;-48
2023/05/14 07:25:39;;;;;;;9.87;4.07;;;15.30;99.90;;;;;;5096147;28;20628;-47
2023/05/14 07:28:04;;;;;;;8.02;3.22;;;15.20;99.90;;;;;;5097545;28;20044;-47
2023/05/14 07:30:30;;;;;;;6.50;3.17;;;15.10;99.90;;;;;;5097142;28;20105;-47
2023/05/14 07:32:56;;;;;;;7.50;3.50;;;15.00;99.90;;;;;;5096960;28;20298;-47
2023/05/14 07:35:22;;;;;;;7.77;3.63;;;15.00;99.90;;;;;;5097250;28;20449;-47
2023/05/14 07:37:48;;;;;;;8.88;4.30;;;14.90;99.90;;;;;;5096813;28;20055;-47
2023/05/14 07:40:13;;;;;;;5.85;3.75;;;14.90;99.90;;;;;;5097205;28;20055;-47
2023/05/14 07:42:39;;;;;;;8.77;3.60;;;14.80;99.90;;;;;;5097081;28;20391;-47
2023/05/14 07:45:05;;;;;;;8.15;3.67;;;14.80;99.90;;;;;;5097046;28;20040;-48
2023/05/14 07:47:31;;;;;;;7.65;3.40;;;14.80;99.90;;;;;;5096950;28;20055;-48
2023/05/14 07:49:57;;;;;;;6.85;3.60;;;14.80;99.90;;;;;;5095667;28;20044;-47
2023/05/14 07:52:23;;;;;;;6.07;3.45;;;14.80;99.90;;;;;;5096538;28;20121;-47
2023/05/14 07:54:50;;;;;;;6.45;3.38;;;14.80;99.90;;;;;;5096858;28;20181;-47
2023/05/14 07:57:16;;;;;;;6.68;3.50;;;14.70;99.90;;;;;;5096797;28;20127;-47
2023/05/14 07:59:42;;;;;;;9.35;3.38;;;14.80;99.90;;;;;;5096814;28;20087;-47
2023/05/14 08:02:09;;;;;;;7.07;3.70;;;14.80;99.90;;;;;;5096549;28;20048;-51
2023/05/14 08:04:35;;;;;;;7.82;3.40;;;14.80;99.90;;;;;;5096618;28;20285;-47
2023/05/14 08:07:00;;;;;;;7.40;3.70;;;14.90;99.90;;;;;;5096395;28;20403;-47
2023/05/14 08:09:26;;;;;;;8.68;3.97;;;14.90;99.90;;;;;;5096520;28;20052;-48
2023/05/14 08:11:52;;;;;;;6.63;3.23;;;14.90;99.90;;;;;;5096775;28;20501;-47
2023/05/14 08:14:17;;;;;;;7.70;3.38;;;15.00;99.90;;;;;;5096641;28;20062;-47
2023/05/14 08:16:43;;;;;;;6.73;3.50;;;15.00;99.90;;;;;;5096475;28;20044;-48
2023/05/14 08:19:09;;;;;;;7.53;3.47;;;15.00;99.90;;;;;;5096984;28;20288;-47
2023/05/14 08:21:34;;;;;;;8.23;4.18;;;15.10;99.90;;;;;;5095299;28;20059;-48
2023/05/14 08:24:00;;;;;;;9.07;4.17;;;15.30;99.90;;;;;;5096628;28;20040;-47
2023/05/14 08:26:26;;;;;;;8.40;3.67;;;15.30;99.90;;;;;;5096290;28;20369;-48
2023/05/14 08:28:53;;;;;;;7.90;3.95;;;15.40;99.90;;;;;;5096475;28;20091;-52
2023/05/14 08:31:19;;;;;;;8.18;3.63;;;15.40;99.90;;;;;;5096343;28;20040;-48
2023/05/14 08:33:44;;;;;;;7.22;3.92;;;15.50;99.90;;;;;;5095853;28;20104;-50
2023/05/14 08:36:10;;;;;;;7.03;3.50;;;15.50;99.90;;;;;;5095349;28;20123;-48
2023/05/14 08:38:36;;;;;;;7.75;3.70;;;15.60;99.90;;;;;;5096497;28;20376;-50
2023/05/14 08:41:05;;;;;;;7.23;3.93;;;15.60;99.90;;;;;;5096184;28;20486;-50
2023/05/14 08:43:55;;;;;;;10.35;4.05;;;15.60;99.90;;;;;;5095968;28;20471;-51
2023/05/14 08:46:23;;;;;;;5.10;3.33;;;15.60;99.90;;;;;;5095698;28;20399;-51
2023/05/14 08:49:07;;;;;;;7.75;3.90;;;15.60;99.90;;;;;;5094543;28;20411;-51
2023/05/14 08:51:34;;;;;;;7.43;3.65;;;15.70;99.90;;;;;;5096322;28;20116;-50
2023/05/14 08:54:01;;;;;;;8.35;3.70;;;15.70;99.90;;;;;;5095666;28;20048;-49
2023/05/14 08:56:31;;;;;;;7.63;4.38;;;15.70;99.90;;;;;;5095702;28;20048;-51
2023/05/14 08:58:56;;;;;;;8.23;4.30;;;15.70;99.90;;;;;;5095559;28;20040;-50
2023/05/14 09:01:23;;;;;;;11.40;3.83;;;15.80;99.90;;;;;;5095338;28;20036;-49
2023/05/14 09:03:50;;;;;;;11.05;4.60;;;15.90;99.90;;;;;;5095609;28;20051;-49
2023/05/14 09:06:17;;;;;;;8.52;3.92;;;15.90;99.90;;;;;;5096006;28;20048;-51
2023/05/14 09:08:42;;;;;;;;;;;16.00;99.90;;;;;;5095708;28;20048;-48
2023/05/14 09:11:08;;;;;;;10.75;4.22;;;16.10;99.90;;;;;;5095215;28;20286;-47
2023/05/14 09:13:38;;;;;;;7.60;3.78;;;16.10;99.90;;;;;;5094339;28;20047;-48
2023/05/14 09:16:04;;;;;;;7.60;3.70;;;16.10;99.90;;;;;;5095083;28;20127;-47
2023/05/14 09:18:30;;;;;;;9.57;4.03;;;16.20;99.90;;;;;;5095297;28;20044;-47
2023/05/14 09:20:56;;;;;;;7.93;4.43;;;16.20;99.90;;;;;;5095672;28;20097;-47
2023/05/14 09:23:25;;;;;;;;;;;16.40;99.90;;;;;;5095896;28;20062;-48
2023/05/14 09:25:51;;;;;;;7.65;4.25;;;16.40;99.90;;;;;;5095008;28;19927;-47
2023/05/14 09:28:17;;;;;;;7.20;3.90;;;16.50;99.90;;;;;;5095077;28;20123;-47
2023/05/14 09:30:51;;;;;;;6.88;3.97;;;16.50;99.90;;;;;;5094848;28;20036;-46
2023/05/14 09:33:27;;;;;;;9.38;4.90;;;16.60;99.90;;;;;;5095136;28;20088;-47
2023/05/14 09:35:59;;;;;;;7.05;3.97;;;16.60;99.90;;;;;;5095165;28;20052;-47
2023/05/14 09:38:29;;;;;;;7.93;4.25;;;16.70;99.90;;;;;;5094910;28;20048;-48
2023/05/14 09:40:56;;;;;;;6.38;4.07;;;16.70;99.90;;;;;;5094684;28;20090;-49
2023/05/14 09:43:21;;;;;;;8.48;4.60;;;16.70;99.90;;;;;;5094990;28;20123;-50
2023/05/14 09:45:47;;;;;;;9.50;5.10;;;16.80;99.90;;;;;;5094721;28;20440;-47
2023/05/14 09:48:13;;;;;;;8.00;4.38;;;16.80;99.90;;;;;;5093856;28;20062;-48
2023/05/14 09:50:43;;;;;;;7.40;4.20;;;16.90;99.90;;;;;;5094509;28;20479;-48
2023/05/14 09:53:09;;;;;;;7.15;4.20;;;17.00;99.90;;;;;;5094524;28;20092;-48
2023/05/14 09:55:36;;;;;;;6.97;3.90;;;17.00;99.90;;;;;;5094299;28;20544;-47
2023/05/14 09:58:02;;;;;;;8.02;4.05;;;17.00;99.90;;;;;;5094512;28;20126;-47
2023/05/14 10:00:30;;;;;;;;;;;17.10;99.90;;;;;;5094823;28;20059;-53
2023/05/14 10:02:57;;;;;;;9.75;4.50;;;17.20;99.90;;;;;;5094701;28;20325;-49
2023/05/14 10:05:23;;;;;;;6.45;3.85;;;17.30;99.90;;;;;;5094369;28;20040;-48
2023/05/14 10:07:52;;;;;;;8.05;4.25;;;17.30;99.90;;;;;;5093174;28;20083;-48
2023/05/14 10:10:19;;;;;;;7.25;4.50;;;17.40;99.90;;;;;;5094070;28;20513;-48
2023/05/14 10:13:12;;;;;;;8.88;5.03;;;17.40;99.90;;;;;;5093926;28;20508;-47
2023/05/14 10:16:00;;;;;;;8.40;4.18;;;17.50;99.90;;;;;;5094135;28;20044;-53
2023/05/14 10:18:30;;;;;;;7.40;4.40;;;17.60;99.90;;;;;;5092851;28;20415;-48
2023/05/14 10:21:02;;;;;;;9.25;5.57;;;17.60;99.90;;;;;;5094042;28;20043;-47
2023/05/14 10:23:29;;;;;;;8.30;4.53;;;17.70;99.90;;;;;;5094130;28;20118;-48
2023/05/14 10:25:55;;;;;;;;;;;17.70;99.90;;;;;;5094429;28;20140;-49
2023/05/14 10:28:20;;;;;;;7.18;4.35;;;17.80;99.90;;;;;;5093967;28;19920;-47
2023/05/14 10:30:46;;;;;;;8.13;4.63;;;17.80;99.90;;;;;;5093859;28;20437;-47
2023/05/14 10:33:17;;;;;;;7.97;4.38;;;17.90;99.90;;;;;;5093691;28;20507;-48
2023/05/14 10:36:03;;;;;;;7.45;4.40;;;17.90;99.90;;;;;;5093920;28;20058;-47
2023/05/14 10:38:32;;;;;;;9.20;4.93;;;18.00;99.90;;;;;;5093631;28;20386;-47
2023/05/14 10:41:00;;;;;;;8.70;5.35;;;18.00;99.90;;;;;;5094095;28;20032;-49
2023/05/14 10:43:28;;;;;;;7.95;4.40;;;18.10;99.90;;;;;;5093524;28;20052;-48
2023/05/14 10:45:54;;;;;;;7.43;4.78;;;18.10;99.90;;;;;;5094072;28;20051;-47
2023/05/14 10:48:20;;;;;;;7.20;4.60;;;18.10;99.90;;;;;;5093779;28;20044;-48
2023/05/14 10:50:53;;;;;;;9.75;4.68;;;18.20;99.90;;;;;;5092784;28;20047;-48
2023/05/14 10:53:19;;;;;;;10.05;5.35;;;18.30;99.90;;;;;;5093737;28;20040;-49
2023/05/14 10:55:45;;;;;;;11.63;4.88;;;18.50;99.90;;;;;;5093816;28;20052;-48
2023/05/14 10:58:11;;;;;;;8.10;5.38;;;18.50;99.90;;;;;;5093502;28;20511;-47
2023/05/14 11:00:38;;;;;;;7.03;3.75;;;18.60;99.90;;;;;;5097783;28;20058;-50
2023/05/14 11:03:05;;;;;;;6.28;3.50;;;18.70;99.90;;;;;;5096774;28;20105;-47
2023/05/14 11:05:32;;;;;;;6.88;3.42;;;18.70;99.90;;;;;;5097789;28;20059;-48
2023/05/14 11:08:00;;;;;;;6.47;3.20;;;18.70;99.90;;;;;;5097720;28;20112;-48
2023/05/14 11:10:28;;;;;;;6.20;2.70;;;18.70;99.90;;;;;;5097573;28;20056;-49
2023/05/14 11:12:56;;;;;;;3.95;2.20;;;18.80;99.90;;;;;;5096499;28;20079;-49
2023/05/14 11:15:24;;;;;;;4.72;2.72;;;18.90;99.90;;;;;;5097697;28;20123;-49
2023/05/14 11:17:51;;;;;;;5.00;2.70;;;19.00;99.90;;;;;;5097657;28;20040;-48
2023/05/14 11:20:17;;;;;;;6.55;2.55;;;19.10;99.90;;;;;;5097575;28;20047;-48
2023/05/14 11:22:43;;;;;;;;;;;19.20;99.90;;;;;;5097967;28;20040;-47
2023/05/14 11:25:13;;;;;;;4.60;2.40;;;19.30;99.90;;;;;;5097414;28;19943;-47
2023/05/14 11:27:40;;;;;;;5.10;2.42;;;19.40;99.90;;;;;;5097862;28;20048;-47
2023/05/14 11:30:13;;;;;;;5.28;2.30;;;19.60;99.90;;;;;;5097343;28;20048;-47
2023/05/14 11:32:40;;;;;;;5.68;2.33;;;19.70;99.90;;;;;;5097360;28;20040;-48
2023/05/14 11:35:05;;;;;;;;;;;19.80;99.90;;;;;;5097803;28;20483;-48
2023/05/14 11:37:31;;;;;;;4.35;2.30;;;19.90;99.90;;;;;;5096984;28;19920;-52
2023/05/14 11:39:59;;;;;;;6.30;2.22;;;20.00;99.90;;;;;;5097127;28;20079;-49
2023/05/14 11:42:25;;;;;;;4.30;2.03;;;20.10;99.90;;;;;;5097084;28;20050;-49
2023/05/14 11:44:52;;;;;;;4.40;2.20;;;20.00;99.90;;;;;;5097131;28;20474;-50
2023/05/14 11:47:20;;;;;;;4.05;1.90;;;20.00;99.90;;;;;;5097331;28;20180;-52
2023/05/14 11:49:46;;;;;;;4.22;1.70;;;19.90;99.90;;;;;;5096932;28;20044;-53
2023/05/14 11:52:15;;;;;;;;;;;19.90;99.90;;;;;;5097165;28;20048;-51
2023/05/14 11:54:42;;;;;;;3.10;1.50;;;19.90;99.90;;;;;;5096703;28;20011;-51
2023/05/14 11:57:14;;;;;;;2.75;1.48;;;19.90;99.90;;;;;;5096875;28;20048;-51
2023/05/14 11:59:40;;;;;;;4.13;1.75;;;20.00;99.90;;;;;;5096902;28;20048;-50
2023/05/14 12:02:11;;;;;;;3.10;1.77;;;20.10;99.90;;;;;;5096805;28;20043;-51
2023/05/14 12:04:37;;;;;;;2.65;1.30;;;20.10;99.90;;;;;;5096760;28;20056;-52
2023/05/14 12:07:10;;;;;;;;;;;20.20;99.90;;;;;;5096759;28;20522;-48
2023/05/14 12:09:41;;;;;;;2.97;1.55;;;20.20;99.90;;;;;;5096133;28;19923;-51
2023/05/14 12:12:11;;;;;;;3.53;1.55;;;20.20;99.90;;;;;;5094349;28;20048;-50
2023/05/14 12:14:38;;;;;;;3.33;1.48;;;20.10;99.90;;;;;;5096544;28;20056;-50
2023/05/14 12:17:19;;;;;;;3.50;1.80;;;20.10;99.90;;;;;;5095477;28;20051;-51
2023/05/14 12:19:49;;;;;;;3.50;1.60;;;20.10;99.90;;;;;;5096733;28;20055;-50
2023/05/14 12:22:22;;;;;;;3.20;1.75;;;20.20;99.90;;;;;;5096465;28;20475;-52
2023/05/14 12:24:58;;;;;;;3.53;1.85;;;20.20;99.90;;;;;;5096348;28;20044;-47
2023/05/14 12:27:26;;;;;;;3.58;1.90;;;20.20;99.90;;;;;;5095231;28;20048;-50
2023/05/14 12:30:05;;;;;;;3.70;1.90;;;20.20;99.90;;;;;;5095914;28;20059;-49
2023/05/14 12:32:38;;;;;;;4.18;1.70;;;20.20;99.90;;;;;;5095971;28;20050;-48
2023/05/14 12:35:04;;;;;;;3.30;1.50;;;20.30;99.90;;;;;;5096261;28;20052;-48
2023/05/14 12:37:29;;;;;;;3.50;1.75;;;20.30;99.90;;;;;;5096170;28;20051;-49
2023/05/14 12:39:55;;;;;;;3.08;1.60;;;20.20;99.90;;;;;;5095854;28;20433;-50
2023/05/14 12:42:21;;;;;;;3.53;1.58;;;20.20;99.90;;;;;;5096070;28;20040;-48
2023/05/14 12:44:47;;;;;;;4.13;1.90;;;20.20;99.90;;;;;;5095628;28;20071;-49
2023/05/14 12:47:12;;;;;;;3.55;1.67;;;20.30;99.90;;;;;;5096328;28;20126;-48
2023/05/14 12:49:38;;;;;;;4.18;1.73;;;20.30;99.90;;;;;;5096156;28;20044;-48